aviador You're here:

ZBYN Decoded Metar

TAIYUAN in CHINA
Report Time2017-10-24 00:00:00
UTC Time2017-10-24 00:27:54
Flight Rules ifr IFR
WindVRB at 2 kt
Visibility2500 m
Phenomena:Mist
Clouds:N/A
Expected CloudBase > 400 ft AGL from Temp-Dew spread
CeilingNone
Temp08°C (ISA -2)
Dew Point07°C (93% RH)
AAT6.6°C
QNH1027 hPa
Density Alt2,001 ft
Elevation2,556 ft
Report Wrong Elevation
Raw Report
METAR ZBYN 240000Z VRB01MPS 2500 BR NSC 08/07 Q1027 BECMG TL0130
3000=

Extra information for ZBYN:More info

Metar Taf Metar & Taf Last 4 Metars F.Rules Stats Wind Profile Meteogram Temp Stats Airport Information Weather charts Add Link Nearby VenuesMetar ALERT Operation Metar Decoded Social comments